sensor_id;sensor_type;location;lat;lon;timestamp;temperature;humidity
18868;DHT22;9563;49.240;9.088;2022-12-18T00:01:14;-6.10;99.90
18868;DHT22;9563;49.240;9.088;2022-12-18T00:03:41;-6.00;99.90
18868;DHT22;9563;49.240;9.088;2022-12-18T00:06:09;-6.00;99.90
18868;DHT22;9563;49.240;9.088;2022-12-18T00:08:37;-5.80;99.90
18868;DHT22;9563;49.240;9.088;2022-12-18T00:11:07;-5.70;99.90
18868;DHT22;9563;49.240;9.088;2022-12-18T00:13:34;-5.60;99.90
18868;DHT22;9563;49.240;9.088;2022-12-18T00:16:02;-5.40;99.90
18868;DHT22;9563;49.240;9.088;2022-12-18T00:18:29;-5.40;99.90
18868;DHT22;9563;49.240;9.088;2022-12-18T00:20:59;-5.20;99.90
18868;DHT22;9563;49.240;9.088;2022-12-18T00:23:26;-5.20;99.90
18868;DHT22;9563;49.240;9.088;2022-12-18T00:25:53;-5.00;99.90
18868;DHT22;9563;49.240;9.088;2022-12-18T00:28:21;-5.00;99.90
18868;DHT22;9563;49.240;9.088;2022-12-18T00:30:48;-5.00;99.90
18868;DHT22;9563;49.240;9.088;2022-12-18T00:33:16;-5.00;99.90
18868;DHT22;9563;49.240;9.088;2022-12-18T00:35:43;-4.90;99.90
18868;DHT22;9563;49.240;9.088;2022-12-18T00:38:10;-4.90;99.90
18868;DHT22;9563;49.240;9.088;2022-12-18T00:40:37;-4.80;99.90
18868;DHT22;9563;49.240;9.088;2022-12-18T00:43:04;-4.80;99.90
18868;DHT22;9563;49.240;9.088;2022-12-18T00:45:31;-4.70;99.90
18868;DHT22;9563;49.240;9.088;2022-12-18T00:47:58;-4.80;99.90
18868;DHT22;9563;49.240;9.088;2022-12-18T00:50:25;-4.80;99.90
18868;DHT22;9563;49.240;9.088;2022-12-18T00:52:52;-4.80;99.90
18868;DHT22;9563;49.240;9.088;2022-12-18T00:55:19;-4.80;99.90
18868;DHT22;9563;49.240;9.088;2022-12-18T00:57:46;-4.70;99.90
18868;DHT22;9563;49.240;9.088;2022-12-18T01:00:14;-4.80;99.90
18868;DHT22;9563;49.240;9.088;2022-12-18T01:02:43;-4.70;99.90
18868;DHT22;9563;49.240;9.088;2022-12-18T01:05:11;-4.80;99.90
18868;DHT22;9563;49.240;9.088;2022-12-18T01:07:38;-4.70;99.90
18868;DHT22;9563;49.240;9.088;2022-12-18T01:10:06;-4.70;99.90
18868;DHT22;9563;49.240;9.088;2022-12-18T01:12:33;-4.60;99.90
18868;DHT22;9563;49.240;9.088;2022-12-18T01:15:00;-4.60;99.90
18868;DHT22;9563;49.240;9.088;2022-12-18T01:17:27;-4.60;99.90
18868;DHT22;9563;49.240;9.088;2022-12-18T01:19:55;-4.60;99.90
18868;DHT22;9563;49.240;9.088;2022-12-18T01:22:22;-4.50;99.90
18868;DHT22;9563;49.240;9.088;2022-12-18T01:24:49;-4.40;99.90
18868;DHT22;9563;49.240;9.088;2022-12-18T01:27:16;-4.40;99.90
18868;DHT22;9563;49.240;9.088;2022-12-18T01:29:43;-4.60;99.90
18868;DHT22;9563;49.240;9.088;2022-12-18T01:32:10;-4.60;99.90
18868;DHT22;9563;49.240;9.088;2022-12-18T01:34:37;-4.40;99.90
18868;DHT22;9563;49.240;9.088;2022-12-18T01:37:06;-4.50;99.90
18868;DHT22;9563;49.240;9.088;2022-12-18T01:39:33;-4.50;99.90
18868;DHT22;9563;49.240;9.088;2022-12-18T01:42:09;-4.50;99.90
18868;DHT22;9563;49.240;9.088;2022-12-18T01:45:01;-4.40;99.90
18868;DHT22;9563;49.240;9.088;2022-12-18T01:47:33;-4.40;99.90
18868;DHT22;9563;49.240;9.088;2022-12-18T01:50:03;-4.40;99.90
18868;DHT22;9563;49.240;9.088;2022-12-18T01:52:33;-4.50;99.90
18868;DHT22;9563;49.240;9.088;2022-12-18T01:55:03;-4.50;99.90
18868;DHT22;9563;49.240;9.088;2022-12-18T01:57:32;-4.50;99.90
18868;DHT22;9563;49.240;9.088;2022-12-18T02:00:03;-4.60;99.90
18868;DHT22;9563;49.240;9.088;2022-12-18T02:02:30;-4.60;99.90
18868;DHT22;9563;49.240;9.088;2022-12-18T02:04:57;-4.60;99.90
18868;DHT22;9563;49.240;9.088;2022-12-18T02:07:32;-4.50;99.90
18868;DHT22;9563;49.240;9.088;2022-12-18T02:10:06;-4.50;99.90
18868;DHT22;9563;49.240;9.088;2022-12-18T02:12:39;-4.50;99.90
18868;DHT22;9563;49.240;9.088;2022-12-18T02:15:12;-4.50;99.90
18868;DHT22;9563;49.240;9.088;2022-12-18T02:17:43;-4.70;99.90
18868;DHT22;9563;49.240;9.088;2022-12-18T02:20:17;-4.90;99.90
18868;DHT22;9563;49.240;9.088;2022-12-18T02:23:00;-5.00;99.90
18868;DHT22;9563;49.240;9.088;2022-12-18T02:25:52;-5.00;99.90
18868;DHT22;9563;49.240;9.088;2022-12-18T02:28:25;-5.00;99.90
18868;DHT22;9563;49.240;9.088;2022-12-18T02:30:53;-5.00;99.90
18868;DHT22;9563;49.240;9.088;2022-12-18T02:33:27;-5.00;99.90
18868;DHT22;9563;49.240;9.088;2022-12-18T02:35:57;-4.90;99.90
18868;DHT22;9563;49.240;9.088;2022-12-18T02:38:25;-5.10;99.90
18868;DHT22;9563;49.240;9.088;2022-12-18T02:40:54;-5.00;99.90
18868;DHT22;9563;49.240;9.088;2022-12-18T02:43:22;-5.00;99.90
18868;DHT22;9563;49.240;9.088;2022-12-18T02:45:50;-5.10;99.90
18868;DHT22;9563;49.240;9.088;2022-12-18T02:48:21;-5.20;99.90
18868;DHT22;9563;49.240;9.088;2022-12-18T02:50:52;-5.10;99.90
18868;DHT22;9563;49.240;9.088;2022-12-18T02:53:24;-5.10;99.90
18868;DHT22;9563;49.240;9.088;2022-12-18T02:56:01;-5.00;99.90
18868;DHT22;9563;49.240;9.088;2022-12-18T02:58:32;-4.90;99.90
18868;DHT22;9563;49.240;9.088;2022-12-18T03:01:08;-4.80;99.90
18868;DHT22;9563;49.240;9.088;2022-12-18T03:03:40;-4.80;99.90
18868;DHT22;9563;49.240;9.088;2022-12-18T03:06:12;-4.70;99.90
18868;DHT22;9563;49.240;9.088;2022-12-18T03:08:44;-4.80;99.90
18868;DHT22;9563;49.240;9.088;2022-12-18T03:11:14;-4.90;99.90
18868;DHT22;9563;49.240;9.088;2022-12-18T03:14:03;-4.90;99.90
18868;DHT22;9563;49.240;9.088;2022-12-18T03:16:34;-4.90;99.90
18868;DHT22;9563;49.240;9.088;2022-12-18T03:19:04;-4.90;99.90
18868;DHT22;9563;49.240;9.088;2022-12-18T03:21:36;-4.80;99.90
18868;DHT22;9563;49.240;9.088;2022-12-18T03:24:06;-4.70;99.90
18868;DHT22;9563;49.240;9.088;2022-12-18T03:26:37;-4.50;99.90
18868;DHT22;9563;49.240;9.088;2022-12-18T03:29:09;-4.50;99.90
18868;DHT22;9563;49.240;9.088;2022-12-18T03:31:40;-4.50;99.90
18868;DHT22;9563;49.240;9.088;2022-12-18T03:34:13;-4.50;99.90
18868;DHT22;9563;49.240;9.088;2022-12-18T03:36:40;-4.50;99.90
18868;DHT22;9563;49.240;9.088;2022-12-18T03:39:07;-4.50;99.90
18868;DHT22;9563;49.240;9.088;2022-12-18T03:41:41;-4.40;99.90
18868;DHT22;9563;49.240;9.088;2022-12-18T03:44:12;-4.50;99.90
18868;DHT22;9563;49.240;9.088;2022-12-18T03:46:45;-4.40;99.90
18868;DHT22;9563;49.240;9.088;2022-12-18T03:49:18;-4.40;99.90
18868;DHT22;9563;49.240;9.088;2022-12-18T03:51:51;-4.40;99.90
18868;DHT22;9563;49.240;9.088;2022-12-18T03:54:20;-4.40;99.90
18868;DHT22;9563;49.240;9.088;2022-12-18T03:56:56;-4.50;99.90
18868;DHT22;9563;49.240;9.088;2022-12-18T03:59:25;-4.60;99.90
18868;DHT22;9563;49.240;9.088;2022-12-18T04:01:53;-4.60;99.90
18868;DHT22;9563;49.240;9.088;2022-12-18T04:04:22;-4.60;99.90
18868;DHT22;9563;49.240;9.088;2022-12-18T04:06:50;-4.60;99.90
18868;DHT22;9563;49.240;9.088;2022-12-18T04:09:18;-4.70;99.90
18868;DHT22;9563;49.240;9.088;2022-12-18T04:11:46;-4.60;99.90
18868;DHT22;9563;49.240;9.088;2022-12-18T04:14:15;-4.60;99.90
18868;DHT22;9563;49.240;9.088;2022-12-18T04:16:42;-4.60;99.90
18868;DHT22;9563;49.240;9.088;2022-12-18T04:19:09;-4.60;99.90
18868;DHT22;9563;49.240;9.088;2022-12-18T04:21:36;-4.60;99.90
18868;DHT22;9563;49.240;9.088;2022-12-18T04:24:02;-4.70;99.90
18868;DHT22;9563;49.240;9.088;2022-12-18T04:26:30;-4.70;99.90
18868;DHT22;9563;49.240;9.088;2022-12-18T04:28:57;-4.60;99.90
18868;DHT22;9563;49.240;9.088;2022-12-18T04:31:25;-4.70;99.90
18868;DHT22;9563;49.240;9.088;2022-12-18T04:33:52;-4.70;99.90
18868;DHT22;9563;49.240;9.088;2022-12-18T04:36:19;-4.60;99.90
18868;DHT22;9563;49.240;9.088;2022-12-18T04:38:46;-4.60;99.90
18868;DHT22;9563;49.240;9.088;2022-12-18T04:41:13;-4.70;99.90
18868;DHT22;9563;49.240;9.088;2022-12-18T04:43:40;-4.70;99.90
18868;DHT22;9563;49.240;9.088;2022-12-18T04:46:07;-4.70;99.90
18868;DHT22;9563;49.240;9.088;2022-12-18T04:48:36;-4.60;99.90
18868;DHT22;9563;49.240;9.088;2022-12-18T04:51:04;-4.70;99.90
18868;DHT22;9563;49.240;9.088;2022-12-18T04:53:32;-4.70;99.90
18868;DHT22;9563;49.240;9.088;2022-12-18T04:56:06;-4.70;99.90
18868;DHT22;9563;49.240;9.088;2022-12-18T04:58:33;-4.90;99.90
18868;DHT22;9563;49.240;9.088;2022-12-18T05:01:00;-4.90;99.90
18868;DHT22;9563;49.240;9.088;2022-12-18T05:03:27;-4.90;99.90
18868;DHT22;9563;49.240;9.088;2022-12-18T05:05:55;-5.00;99.90
18868;DHT22;9563;49.240;9.088;2022-12-18T05:08:23;-4.90;99.90
18868;DHT22;9563;49.240;9.088;2022-12-18T05:10:50;-5.00;99.90
18868;DHT22;9563;49.240;9.088;2022-12-18T05:13:24;-5.00;99.90
18868;DHT22;9563;49.240;9.088;2022-12-18T05:15:51;-5.00;99.90
18868;DHT22;9563;49.240;9.088;2022-12-18T05:18:18;-5.00;99.90
18868;DHT22;9563;49.240;9.088;2022-12-18T05:20:45;-5.10;99.90
18868;DHT22;9563;49.240;9.088;2022-12-18T05:23:14;-5.00;99.90
18868;DHT22;9563;49.240;9.088;2022-12-18T05:25:41;-5.10;99.90
18868;DHT22;9563;49.240;9.088;2022-12-18T05:28:08;-5.10;99.90
18868;DHT22;9563;49.240;9.088;2022-12-18T05:30:35;-5.20;99.90
18868;DHT22;9563;49.240;9.088;2022-12-18T05:33:01;-5.20;99.90
18868;DHT22;9563;49.240;9.088;2022-12-18T05:35:28;-5.10;99.90
18868;DHT22;9563;49.240;9.088;2022-12-18T05:37:55;-5.10;99.90
18868;DHT22;9563;49.240;9.088;2022-12-18T05:40:23;-5.20;99.90
18868;DHT22;9563;49.240;9.088;2022-12-18T05:42:50;-5.20;99.90
18868;DHT22;9563;49.240;9.088;2022-12-18T05:45:17;-5.20;99.90
18868;DHT22;9563;49.240;9.088;2022-12-18T05:47:45;-5.10;99.90
18868;DHT22;9563;49.240;9.088;2022-12-18T05:50:12;-5.20;99.90
18868;DHT22;9563;49.240;9.088;2022-12-18T05:52:39;-5.20;99.90
18868;DHT22;9563;49.240;9.088;2022-12-18T05:55:07;-5.30;99.90
18868;DHT22;9563;49.240;9.088;2022-12-18T05:57:35;-5.20;99.90
18868;DHT22;9563;49.240;9.088;2022-12-18T06:00:03;-5.20;99.90
18868;DHT22;9563;49.240;9.088;2022-12-18T06:02:30;-5.20;99.90
18868;DHT22;9563;49.240;9.088;2022-12-18T06:04:57;-5.20;99.90
18868;DHT22;9563;49.240;9.088;2022-12-18T06:07:23;-5.20;99.90
18868;DHT22;9563;49.240;9.088;2022-12-18T06:09:50;-5.20;99.90
18868;DHT22;9563;49.240;9.088;2022-12-18T06:12:17;-5.30;99.90
18868;DHT22;9563;49.240;9.088;2022-12-18T06:14:45;-5.30;99.90
18868;DHT22;9563;49.240;9.088;2022-12-18T06:17:12;-5.20;99.90
18868;DHT22;9563;49.240;9.088;2022-12-18T06:19:39;-5.20;99.90
18868;DHT22;9563;49.240;9.088;2022-12-18T06:22:06;-5.10;99.90
18868;DHT22;9563;49.240;9.088;2022-12-18T06:24:33;-5.20;99.90
18868;DHT22;9563;49.240;9.088;2022-12-18T06:27:00;-5.20;99.90
18868;DHT22;9563;49.240;9.088;2022-12-18T06:29:27;-5.20;99.90
18868;DHT22;9563;49.240;9.088;2022-12-18T06:31:56;-5.20;99.90
18868;DHT22;9563;49.240;9.088;2022-12-18T06:34:22;-5.10;99.90
18868;DHT22;9563;49.240;9.088;2022-12-18T06:36:49;-5.10;99.90
18868;DHT22;9563;49.240;9.088;2022-12-18T06:39:16;-5.00;99.90
18868;DHT22;9563;49.240;9.088;2022-12-18T06:41:43;-5.00;99.90
18868;DHT22;9563;49.240;9.088;2022-12-18T06:44:10;-4.90;99.90
18868;DHT22;9563;49.240;9.088;2022-12-18T06:46:37;-4.90;99.90
18868;DHT22;9563;49.240;9.088;2022-12-18T06:49:06;-5.00;99.90
18868;DHT22;9563;49.240;9.088;2022-12-18T06:51:34;-5.00;99.90
18868;DHT22;9563;49.240;9.088;2022-12-18T06:54:02;-5.10;99.90
18868;DHT22;9563;49.240;9.088;2022-12-18T06:56:29;-5.10;99.90
18868;DHT22;9563;49.240;9.088;2022-12-18T06:58:56;-5.10;99.90
18868;DHT22;9563;49.240;9.088;2022-12-18T07:01:23;-5.10;99.90
18868;DHT22;9563;49.240;9.088;2022-12-18T07:03:51;-5.10;99.90
18868;DHT22;9563;49.240;9.088;2022-12-18T07:06:23;-5.10;99.90
18868;DHT22;9563;49.240;9.088;2022-12-18T07:08:51;-5.10;99.90
18868;DHT22;9563;49.240;9.088;2022-12-18T07:11:19;-5.00;99.90
18868;DHT22;9563;49.240;9.088;2022-12-18T07:13:46;-5.00;99.90
18868;DHT22;9563;49.240;9.088;2022-12-18T07:16:14;-5.00;99.90
18868;DHT22;9563;49.240;9.088;2022-12-18T07:18:41;-5.00;99.90
18868;DHT22;9563;49.240;9.088;2022-12-18T07:21:14;-5.10;99.90
18868;DHT22;9563;49.240;9.088;2022-12-18T07:23:43;-5.20;99.90
18868;DHT22;9563;49.240;9.088;2022-12-18T07:26:12;-5.20;99.90
18868;DHT22;9563;49.240;9.088;2022-12-18T07:28:40;-5.00;99.90
18868;DHT22;9563;49.240;9.088;2022-12-18T07:31:09;-5.10;99.90
18868;DHT22;9563;49.240;9.088;2022-12-18T07:33:37;-5.00;99.90
18868;DHT22;9563;49.240;9.088;2022-12-18T07:36:06;-5.10;99.90
18868;DHT22;9563;49.240;9.088;2022-12-18T07:38:34;-5.20;99.90
18868;DHT22;9563;49.240;9.088;2022-12-18T07:41:03;-5.10;99.90
18868;DHT22;9563;49.240;9.088;2022-12-18T07:43:30;-5.10;99.90
18868;DHT22;9563;49.240;9.088;2022-12-18T07:45:57;-4.90;99.90
18868;DHT22;9563;49.240;9.088;2022-12-18T07:48:24;-4.70;99.90
18868;DHT22;9563;49.240;9.088;2022-12-18T07:50:51;-4.60;99.90
18868;DHT22;9563;49.240;9.088;2022-12-18T07:53:18;-4.40;99.90
18868;DHT22;9563;49.240;9.088;2022-12-18T07:55:45;-4.30;99.90
18868;DHT22;9563;49.240;9.088;2022-12-18T07:58:13;-4.30;99.90
18868;DHT22;9563;49.240;9.088;2022-12-18T08:00:40;-4.40;99.90
18868;DHT22;9563;49.240;9.088;2022-12-18T08:03:07;-4.50;99.90
18868;DHT22;9563;49.240;9.088;2022-12-18T08:05:34;-4.60;99.90
18868;DHT22;9563;49.240;9.088;2022-12-18T08:08:01;-4.60;99.90
18868;DHT22;9563;49.240;9.088;2022-12-18T08:10:28;-4.70;99.90
18868;DHT22;9563;49.240;9.088;2022-12-18T08:12:55;-4.60;99.90
18868;DHT22;9563;49.240;9.088;2022-12-18T08:15:23;-4.60;99.90
18868;DHT22;9563;49.240;9.088;2022-12-18T08:17:50;-4.60;99.90
18868;DHT22;9563;49.240;9.088;2022-12-18T08:20:17;-4.50;99.90
18868;DHT22;9563;49.240;9.088;2022-12-18T08:22:44;-4.60;99.90
18868;DHT22;9563;49.240;9.088;2022-12-18T08:25:11;-4.50;99.90
18868;DHT22;9563;49.240;9.088;2022-12-18T08:27:38;-4.50;99.90
18868;DHT22;9563;49.240;9.088;2022-12-18T08:30:06;-4.50;99.90
18868;DHT22;9563;49.240;9.088;2022-12-18T08:32:35;-4.50;99.90
18868;DHT22;9563;49.240;9.088;2022-12-18T08:35:02;-4.50;99.90
18868;DHT22;9563;49.240;9.088;2022-12-18T08:37:29;-4.40;99.90
18868;DHT22;9563;49.240;9.088;2022-12-18T08:39:56;-4.40;99.90
18868;DHT22;9563;49.240;9.088;2022-12-18T08:42:23;-4.30;99.90
18868;DHT22;9563;49.240;9.088;2022-12-18T08:45:08;-4.20;99.90
18868;DHT22;9563;49.240;9.088;2022-12-18T08:47:37;-4.20;99.90
18868;DHT22;9563;49.240;9.088;2022-12-18T08:50:04;-4.10;99.90
18868;DHT22;9563;49.240;9.088;2022-12-18T08:52:32;-4.10;99.90
18868;DHT22;9563;49.240;9.088;2022-12-18T08:54:59;-4.10;99.90
18868;DHT22;9563;49.240;9.088;2022-12-18T08:57:26;-4.00;99.90
18868;DHT22;9563;49.240;9.088;2022-12-18T08:59:53;-3.80;99.90
18868;DHT22;9563;49.240;9.088;2022-12-18T09:02:20;-3.60;99.90
18868;DHT22;9563;49.240;9.088;2022-12-18T09:04:48;-3.60;99.90
18868;DHT22;9563;49.240;9.088;2022-12-18T09:07:15;-3.60;99.90
18868;DHT22;9563;49.240;9.088;2022-12-18T09:09:42;-3.40;99.90
18868;DHT22;9563;49.240;9.088;2022-12-18T09:12:09;-3.40;99.90
18868;DHT22;9563;49.240;9.088;2022-12-18T09:14:36;-3.30;99.90
18868;DHT22;9563;49.240;9.088;2022-12-18T09:17:03;-3.00;99.90
18868;DHT22;9563;49.240;9.088;2022-12-18T09:19:30;-2.70;99.90
18868;DHT22;9563;49.240;9.088;2022-12-18T09:21:58;-2.30;99.90
18868;DHT22;9563;49.240;9.088;2022-12-18T09:24:25;-1.80;99.90
18868;DHT22;9563;49.240;9.088;2022-12-18T09:26:53;-1.50;99.90
18868;DHT22;9563;49.240;9.088;2022-12-18T09:29:21;-1.10;99.90
18868;DHT22;9563;49.240;9.088;2022-12-18T09:31:48;-1.00;99.90
18868;DHT22;9563;49.240;9.088;2022-12-18T09:34:15;-0.60;99.90
18868;DHT22;9563;49.240;9.088;2022-12-18T09:36:42;-0.40;99.90
18868;DHT22;9563;49.240;9.088;2022-12-18T09:39:10;-0.10;99.90
18868;DHT22;9563;49.240;9.088;2022-12-18T09:41:44;0.10;99.90
18868;DHT22;9563;49.240;9.088;2022-12-18T09:44:22;0.40;99.90
18868;DHT22;9563;49.240;9.088;2022-12-18T09:46:53;0.70;99.90
18868;DHT22;9563;49.240;9.088;2022-12-18T09:49:23;1.00;99.90
18868;DHT22;9563;49.240;9.088;2022-12-18T09:51:56;1.00;99.90
18868;DHT22;9563;49.240;9.088;2022-12-18T09:54:30;1.30;99.90
18868;DHT22;9563;49.240;9.088;2022-12-18T09:56:58;1.30;99.90
18868;DHT22;9563;49.240;9.088;2022-12-18T09:59:27;1.80;99.90
18868;DHT22;9563;49.240;9.088;2022-12-18T10:01:57;2.00;99.90
18868;DHT22;9563;49.240;9.088;2022-12-18T10:04:24;2.30;99.90
18868;DHT22;9563;49.240;9.088;2022-12-18T10:06:57;2.90;99.90
18868;DHT22;9563;49.240;9.088;2022-12-18T10:09:36;3.50;99.90
18868;DHT22;9563;49.240;9.088;2022-12-18T10:12:08;4.00;99.90
18868;DHT22;9563;49.240;9.088;2022-12-18T10:14:45;4.40;99.90
18868;DHT22;9563;49.240;9.088;2022-12-18T10:17:22;4.80;99.90
18868;DHT22;9563;49.240;9.088;2022-12-18T10:19:55;5.10;99.90
18868;DHT22;9563;49.240;9.088;2022-12-18T10:22:39;5.60;99.90
18868;DHT22;9563;49.240;9.088;2022-12-18T10:25:19;5.90;98.00
18868;DHT22;9563;49.240;9.088;2022-12-18T10:27:51;6.10;97.10
18868;DHT22;9563;49.240;9.088;2022-12-18T10:30:20;6.30;96.10
18868;DHT22;9563;49.240;9.088;2022-12-18T10:32:47;6.40;95.10
18868;DHT22;9563;49.240;9.088;2022-12-18T10:35:18;6.40;94.70
18868;DHT22;9563;49.240;9.088;2022-12-18T10:38:05;6.40;93.80
18868;DHT22;9563;49.240;9.088;2022-12-18T10:40:48;6.50;94.80
18868;DHT22;9563;49.240;9.088;2022-12-18T10:43:21;6.60;94.80
18868;DHT22;9563;49.240;9.088;2022-12-18T10:46:13;6.70;93.70
18868;DHT22;9563;49.240;9.088;2022-12-18T10:48:51;6.40;94.30
18868;DHT22;9563;49.240;9.088;2022-12-18T10:51:24;6.10;94.30
18868;DHT22;9563;49.240;9.088;2022-12-18T10:53:55;5.80;95.30
18868;DHT22;9563;49.240;9.088;2022-12-18T10:56:26;5.10;96.00
18868;DHT22;9563;49.240;9.088;2022-12-18T10:58:59;4.20;98.50
18868;DHT22;9563;49.240;9.088;2022-12-18T11:01:27;3.40;99.90
18868;DHT22;9563;49.240;9.088;2022-12-18T11:04:07;2.90;99.90
18868;DHT22;9563;49.240;9.088;2022-12-18T11:06:53;2.40;99.90
18868;DHT22;9563;49.240;9.088;2022-12-18T11:09:22;2.20;99.90
18868;DHT22;9563;49.240;9.088;2022-12-18T11:11:52;2.00;99.90
18868;DHT22;9563;49.240;9.088;2022-12-18T11:14:22;1.70;99.90
18868;DHT22;9563;49.240;9.088;2022-12-18T11:16:51;1.50;99.90
18868;DHT22;9563;49.240;9.088;2022-12-18T11:19:29;1.30;99.90
18868;DHT22;9563;49.240;9.088;2022-12-18T11:21:57;1.30;99.90
18868;DHT22;9563;49.240;9.088;2022-12-18T11:24:28;1.30;99.90
18868;DHT22;9563;49.240;9.088;2022-12-18T11:26:59;1.20;99.90
18868;DHT22;9563;49.240;9.088;2022-12-18T11:29:34;1.20;99.90
18868;DHT22;9563;49.240;9.088;2022-12-18T11:32:29;1.30;99.90
18868;DHT22;9563;49.240;9.088;2022-12-18T11:35:01;1.30;99.90
18868;DHT22;9563;49.240;9.088;2022-12-18T11:37:29;1.30;99.90
18868;DHT22;9563;49.240;9.088;2022-12-18T11:40:00;1.30;99.90
18868;DHT22;9563;49.240;9.088;2022-12-18T11:42:35;1.20;99.90
18868;DHT22;9563;49.240;9.088;2022-12-18T11:45:23;1.30;99.90
18868;DHT22;9563;49.240;9.088;2022-12-18T11:47:57;1.20;99.90
18868;DHT22;9563;49.240;9.088;2022-12-18T11:50:28;1.10;99.90
18868;DHT22;9563;49.240;9.088;2022-12-18T11:52:56;1.10;99.90
18868;DHT22;9563;49.240;9.088;2022-12-18T11:55:31;1.30;99.90
18868;DHT22;9563;49.240;9.088;2022-12-18T11:58:08;1.50;99.90
18868;DHT22;9563;49.240;9.088;2022-12-18T12:00:43;1.40;99.90
18868;DHT22;9563;49.240;9.088;2022-12-18T12:03:42;1.50;99.90
18868;DHT22;9563;49.240;9.088;2022-12-18T12:06:19;1.60;99.90
18868;DHT22;9563;49.240;9.088;2022-12-18T12:09:03;1.70;99.90
18868;DHT22;9563;49.240;9.088;2022-12-18T12:11:38;1.80;99.90
18868;DHT22;9563;49.240;9.088;2022-12-18T12:14:30;1.90;99.90
18868;DHT22;9563;49.240;9.088;2022-12-18T12:17:08;1.80;99.90
18868;DHT22;9563;49.240;9.088;2022-12-18T12:19:44;1.90;99.90
18868;DHT22;9563;49.240;9.088;2022-12-18T12:22:18;2.00;99.90
18868;DHT22;9563;49.240;9.088;2022-12-18T12:24:56;1.90;99.90
18868;DHT22;9563;49.240;9.088;2022-12-18T12:27:30;1.90;99.90
18868;DHT22;9563;49.240;9.088;2022-12-18T12:30:16;1.90;99.90
18868;DHT22;9563;49.240;9.088;2022-12-18T12:33:03;1.80;99.90
18868;DHT22;9563;49.240;9.088;2022-12-18T12:35:41;1.80;99.90
18868;DHT22;9563;49.240;9.088;2022-12-18T12:38:14;1.80;99.90
18868;DHT22;9563;49.240;9.088;2022-12-18T12:40:45;2.00;99.90
18868;DHT22;9563;49.240;9.088;2022-12-18T12:43:35;2.30;99.90
18868;DHT22;9563;49.240;9.088;2022-12-18T12:46:06;2.30;99.90
18868;DHT22;9563;49.240;9.088;2022-12-18T12:48:42;2.40;99.90
18868;DHT22;9563;49.240;9.088;2022-12-18T12:51:16;2.50;99.90
18868;DHT22;9563;49.240;9.088;2022-12-18T12:53:44;2.50;99.90
18868;DHT22;9563;49.240;9.088;2022-12-18T12:56:14;2.40;99.90
18868;DHT22;9563;49.240;9.088;2022-12-18T12:58:49;2.40;99.90
18868;DHT22;9563;49.240;9.088;2022-12-18T13:01:27;2.30;99.90
18868;DHT22;9563;49.240;9.088;2022-12-18T13:04:02;2.20;99.90
18868;DHT22;9563;49.240;9.088;2022-12-18T13:06:40;2.40;99.90
18868;DHT22;9563;49.240;9.088;2022-12-18T13:09:09;2.40;99.90
18868;DHT22;9563;49.240;9.088;2022-12-18T13:11:38;2.40;99.90
18868;DHT22;9563;49.240;9.088;2022-12-18T13:14:25;2.40;99.90
18868;DHT22;9563;49.240;9.088;2022-12-18T13:17:15;2.30;99.90
18868;DHT22;9563;49.240;9.088;2022-12-18T13:19:43;2.20;99.90
18868;DHT22;9563;49.240;9.088;2022-12-18T13:22:22;2.20;99.90
18868;DHT22;9563;49.240;9.088;2022-12-18T13:24:49;2.10;99.90
18868;DHT22;9563;49.240;9.088;2022-12-18T13:27:45;2.00;99.90
18868;DHT22;9563;49.240;9.088;2022-12-18T13:33:42;1.90;99.90
18868;DHT22;9563;49.240;9.088;2022-12-18T13:36:13;1.80;99.90
18868;DHT22;9563;49.240;9.088;2022-12-18T13:38:42;1.70;99.90
18868;DHT22;9563;49.240;9.088;2022-12-18T13:41:25;1.70;99.90
18868;DHT22;9563;49.240;9.088;2022-12-18T13:43:53;1.60;99.90
18868;DHT22;9563;49.240;9.088;2022-12-18T13:46:28;1.50;99.90
18868;DHT22;9563;49.240;9.088;2022-12-18T13:49:02;1.40;99.90
18868;DHT22;9563;49.240;9.088;2022-12-18T13:51:32;1.30;99.90
18868;DHT22;9563;49.240;9.088;2022-12-18T13:54:01;1.20;99.90
18868;DHT22;9563;49.240;9.088;2022-12-18T13:56:31;1.10;99.90
18868;DHT22;9563;49.240;9.088;2022-12-18T13:59:20;1.10;99.90
18868;DHT22;9563;49.240;9.088;2022-12-18T14:01:51;1.00;99.90
18868;DHT22;9563;49.240;9.088;2022-12-18T14:04:26;1.00;99.90
18868;DHT22;9563;49.240;9.088;2022-12-18T14:06:57;0.90;99.90
18868;DHT22;9563;49.240;9.088;2022-12-18T14:09:27;1.00;99.90
18868;DHT22;9563;49.240;9.088;2022-12-18T14:11:55;0.90;99.90
18868;DHT22;9563;49.240;9.088;2022-12-18T14:14:45;0.90;99.90
18868;DHT22;9563;49.240;9.088;2022-12-18T14:17:14;0.90;99.90
18868;DHT22;9563;49.240;9.088;2022-12-18T14:19:44;0.80;99.90
18868;DHT22;9563;49.240;9.088;2022-12-18T14:22:16;0.80;99.90
18868;DHT22;9563;49.240;9.088;2022-12-18T14:24:43;0.70;99.90
18868;DHT22;9563;49.240;9.088;2022-12-18T14:27:21;0.70;99.90
18868;DHT22;9563;49.240;9.088;2022-12-18T14:29:49;0.60;99.90
18868;DHT22;9563;49.240;9.088;2022-12-18T14:32:18;0.60;99.90
18868;DHT22;9563;49.240;9.088;2022-12-18T14:34:48;0.50;99.90
18868;DHT22;9563;49.240;9.088;2022-12-18T14:37:18;0.40;99.90
18868;DHT22;9563;49.240;9.088;2022-12-18T14:39:54;0.40;99.90
18868;DHT22;9563;49.240;9.088;2022-12-18T14:42:22;0.40;99.90
18868;DHT22;9563;49.240;9.088;2022-12-18T14:45:32;0.40;99.90
18868;DHT22;9563;49.240;9.088;2022-12-18T14:47:59;0.30;99.90
18868;DHT22;9563;49.240;9.088;2022-12-18T14:50:29;0.40;99.90
18868;DHT22;9563;49.240;9.088;2022-12-18T14:52:56;0.30;99.90
18868;DHT22;9563;49.240;9.088;2022-12-18T14:55:22;0.30;99.90
18868;DHT22;9563;49.240;9.088;2022-12-18T14:57:50;0.20;99.90
18868;DHT22;9563;49.240;9.088;2022-12-18T15:00:20;0.20;99.90
18868;DHT22;9563;49.240;9.088;2022-12-18T15:02:51;0.10;99.90
18868;DHT22;9563;49.240;9.088;2022-12-18T15:05:23;0.10;99.90
18868;DHT22;9563;49.240;9.088;2022-12-18T15:07:54;0.10;99.90
18868;DHT22;9563;49.240;9.088;2022-12-18T15:10:23;0.00;99.90
18868;DHT22;9563;49.240;9.088;2022-12-18T15:13:07;0.00;99.90
18868;DHT22;9563;49.240;9.088;2022-12-18T15:15:45;0.00;99.90
18868;DHT22;9563;49.240;9.088;2022-12-18T15:18:14;0.00;99.90
18868;DHT22;9563;49.240;9.088;2022-12-18T15:20:44;-0.10;99.90
18868;DHT22;9563;49.240;9.088;2022-12-18T15:23:17;-0.20;99.90
18868;DHT22;9563;49.240;9.088;2022-12-18T15:25:46;-0.10;99.90
18868;DHT22;9563;49.240;9.088;2022-12-18T15:28:19;-0.20;99.90
18868;DHT22;9563;49.240;9.088;2022-12-18T15:31:00;-0.20;99.90
18868;DHT22;9563;49.240;9.088;2022-12-18T15:33:30;-0.20;99.90
18868;DHT22;9563;49.240;9.088;2022-12-18T15:35:58;-0.20;99.90
18868;DHT22;9563;49.240;9.088;2022-12-18T15:38:26;-0.20;99.90
18868;DHT22;9563;49.240;9.088;2022-12-18T15:40:54;-0.30;99.90
18868;DHT22;9563;49.240;9.088;2022-12-18T15:43:21;-0.30;99.90
18868;DHT22;9563;49.240;9.088;2022-12-18T15:46:03;-0.40;99.90
18868;DHT22;9563;49.240;9.088;2022-12-18T15:48:32;-0.40;99.90
18868;DHT22;9563;49.240;9.088;2022-12-18T15:51:00;-0.20;99.90
18868;DHT22;9563;49.240;9.088;2022-12-18T15:53:30;-0.10;99.90
18868;DHT22;9563;49.240;9.088;2022-12-18T15:55:58;-0.10;99.90
18868;DHT22;9563;49.240;9.088;2022-12-18T15:58:43;-0.10;99.90
18868;DHT22;9563;49.240;9.088;2022-12-18T16:01:10;-0.20;99.90
18868;DHT22;9563;49.240;9.088;2022-12-18T16:03:38;-0.20;99.90
18868;DHT22;9563;49.240;9.088;2022-12-18T16:06:05;-0.30;99.90
18868;DHT22;9563;49.240;9.088;2022-12-18T16:08:33;-0.20;99.90
18868;DHT22;9563;49.240;9.088;2022-12-18T16:11:00;-0.30;99.90
18868;DHT22;9563;49.240;9.088;2022-12-18T16:13:27;-0.50;99.90
18868;DHT22;9563;49.240;9.088;2022-12-18T16:15:55;-0.60;99.90
18868;DHT22;9563;49.240;9.088;2022-12-18T16:18:21;-0.70;99.90